Time;durP1;ratioP1;P1;durP2;ratioP2;P2;SDS_P1;SDS_P2;PMS_P1;PMS_P2;Temp;Humidity;BMP_temperature;BMP_pressure;BME280_temperature;BME280_humidity;BME280_pressure;Samples;Min_cycle;Max_cycle;Signal;HPM_P1;HPM_P2
2021/12/14 00:00:25;;;;;;;;;25.67;22.67;;;;;9.30;70.02;102359.66;4975763;28;48631;-67
2021/12/14 00:02:52;;;;;;;;;26.00;25.67;;;;;9.34;69.87;102359.34;4976190;28;46082;-67
2021/12/14 00:05:20;;;;;;;;;29.00;27.00;;;;;9.39;69.57;102369.66;4976033;28;45268;-67
2021/12/14 00:07:46;;;;;;;;;27.00;19.00;;;;;9.31;69.40;102340.13;4977804;28;45647;-66
2021/12/14 00:10:31;;;;;;;;;28.67;25.00;;;;;9.22;69.00;102341.56;4977193;28;46804;-67
2021/12/14 00:13:06;;;;;;;;;21.00;18.00;;;;;9.23;69.89;102361.00;4976364;28;45499;-68
2021/12/14 00:15:32;;;;;;;;;23.67;19.67;;;;;9.29;69.71;102358.78;4992264;28;45361;-67
2021/12/14 00:18:03;;;;;;;;;25.33;19.33;;;;;9.31;69.78;102340.13;4995104;28;45549;-66
2021/12/14 00:20:41;;;;;;;;;21.33;18.67;;;;;9.23;69.80;102326.50;4996695;28;45601;-66
2021/12/14 00:25:43;;;;;;;;;27.67;23.00;;;;;9.23;70.42;102348.56;4996875;28;45464;-68
2021/12/14 00:28:22;;;;;;;;;18.00;18.00;;;;;9.08;70.54;102350.38;4996914;28;45513;-67
2021/12/14 00:30:49;;;;;;;;;25.00;20.67;;;;;9.30;70.11;102370.25;4996344;28;46752;-66
2021/12/14 00:33:18;;;;;;;;;24.00;22.00;;;;;7.94;69.94;102129.44;4995229;28;45500;-68
2021/12/14 00:35:45;;;;;;;;;22.33;18.33;;;;;9.08;69.47;102318.53;4996566;28;45527;-68
2021/12/14 00:38:14;;;;;;;;;20.00;20.00;;;;;9.28;69.54;102329.69;4992716;28;45302;-66
2021/12/14 00:40:43;;;;;;;;;24.67;21.67;;;;;9.46;69.27;102339.16;4991565;28;45931;-67
2021/12/14 00:43:09;;;;;;;;;23.00;17.67;;;;;9.49;69.19;102338.94;4975524;28;45367;-67
2021/12/14 00:45:38;;;;;;;;;17.00;16.67;;;;;9.45;68.49;102346.25;4976790;28;45451;-67
2021/12/14 00:48:05;;;;;;;;;15.67;14.33;;;;;9.42;68.59;102345.63;4977151;28;45194;-68
2021/12/14 00:50:33;;;;;;;;;18.00;16.33;;;;;9.51;68.28;102342.34;4992571;28;47121;-66
2021/12/14 00:52:59;;;;;;;;;17.33;12.67;;;;;9.56;68.21;102340.25;4976919;28;45375;-66
2021/12/14 00:55:32;;;;;;;;;10.00;8.00;;;;;9.34;68.58;102314.22;4991849;28;45421;-68
2021/12/14 00:57:59;;;;;;;;;14.67;14.00;;;;;9.52;68.80;102324.63;4977052;28;45477;-67
2021/12/14 01:00:31;;;;;;;;;10.67;9.33;;;;;9.00;68.11;102248.31;4978148;28;46018;-67
2021/12/14 01:02:58;;;;;;;;;12.00;10.67;;;;;9.21;67.62;102285.91;4978858;28;45376;-67
2021/12/14 01:05:31;;;;;;;;;9.33;8.67;;;;;9.45;67.73;102333.00;4979082;28;45542;-67
2021/12/14 01:07:58;;;;;;;;;12.67;10.00;;;;;9.53;67.79;102343.09;4981815;28;45479;-66
2021/12/14 01:10:31;;;;;;;;;15.67;11.67;;;;;9.42;68.05;102335.84;4981279;28;46843;-67
2021/12/14 01:13:02;;;;;;;;;12.67;12.67;;;;;9.51;68.14;102352.97;4979864;28;45515;-67
2021/12/14 01:21:18;;;;;;;;;12.33;11.33;;;;;9.46;67.91;102360.38;4979794;28;45713;-67
2021/12/14 01:23:45;;;;;;;;;12.67;12.00;;;;;9.21;68.13;102339.84;4979786;28;45239;-66
2021/12/14 01:26:16;;;;;;;;;9.67;7.00;;;;;8.99;68.48;102328.84;4979817;28;45553;-66
2021/12/14 01:28:43;;;;;;;;;15.00;9.67;;;;;9.16;68.67;102371.09;4978607;28;45623;-66
2021/12/14 01:31:21;;;;;;;;;9.00;9.00;;;;;9.17;68.62;102366.66;4994621;28;46589;-67
2021/12/14 01:34:02;;;;;;;;;17.67;9.67;;;;;9.35;68.91;102369.00;4978275;28;45262;-66
2021/12/14 01:39:24;;;;;;;;;12.00;9.67;;;;;9.43;68.74;102392.44;4986241;28;45338;-67
2021/12/14 01:41:52;;;;;;;;;12.33;9.33;;;;;9.40;68.79;102387.31;4999144;28;46401;-66
2021/12/14 01:44:18;;;;;;;;;14.00;9.67;;;;;9.44;68.48;102404.78;4998737;28;45564;-66
2021/12/14 01:46:58;;;;;;;;;16.00;13.33;;;;;9.33;68.46;102386.84;4999005;28;45450;-67
2021/12/14 01:49:27;;;;;;;;;12.00;10.00;;;;;9.51;68.16;102405.22;4998090;28;45514;-67
2021/12/14 01:51:57;;;;;;;;;16.33;10.00;;;;;9.47;67.96;102398.41;4998725;28;47534;-66
2021/12/14 01:54:29;;;;;;;;;8.33;8.33;;;;;9.43;67.86;102416.34;4997702;28;45369;-67
2021/12/14 01:56:55;;;;;;;;;13.00;9.33;;;;;9.43;68.28;102419.84;4998936;28;45272;-66
2021/12/14 01:59:35;;;;;;;;;15.00;11.33;;;;;9.37;68.50;102414.91;5014453;28;45567;-67
2021/12/14 02:04:40;;;;;;;;;15.33;11.00;;;;;9.46;68.34;102429.41;4998737;28;45323;-66
2021/12/14 02:07:08;;;;;;;;;10.00;10.00;;;;;9.48;68.38;102429.31;4998839;28;45230;-67
2021/12/14 02:09:35;;;;;;;;;17.00;14.67;;;;;9.36;68.32;102412.34;4984356;28;45391;-68
2021/12/14 02:12:09;;;;;;;;;15.00;10.00;;;;;9.50;68.24;102446.84;4977124;28;47590;-67
2021/12/14 02:14:36;;;;;;;;;19.00;14.67;;;;;9.39;68.28;102447.50;4978952;28;45403;-66
2021/12/14 02:17:04;;;;;;;;;16.00;14.33;;;;;9.37;68.94;102452.06;4979083;28;45305;-66
2021/12/14 02:19:31;;;;;;;;;9.67;9.67;;;;;9.39;68.88;102455.47;4979602;28;45503;-68
2021/12/14 02:21:59;;;;;;;;;15.67;14.33;;;;;8.99;69.45;102405.78;4993886;28;47821;-67
2021/12/14 02:24:27;;;;;;;;;16.67;15.33;;;;;9.00;69.72;102410.13;4979093;28;45243;-66
2021/12/14 02:26:54;;;;;;;;;17.67;14.67;;;;;9.22;69.56;102447.72;4979048;28;45272;-66
2021/12/14 02:29:30;;;;;;;;;12.33;11.67;;;;;9.26;69.66;102443.91;4979128;28;45325;-67
2021/12/14 02:32:15;;;;;;;;;8.00;7.67;;;;;9.24;69.05;102435.19;4978579;28;47240;-66
2021/12/14 02:34:55;;;;;;;;;11.33;9.67;;;;;9.10;68.76;102432.53;4978874;28;45295;-66
2021/12/14 02:37:52;;;;;;;;;9.67;8.67;;;;;8.94;69.17;102421.97;4978977;28;45608;-66
2021/12/14 02:40:32;;;;;;;;;11.00;10.00;;;;;8.93;69.78;102403.50;4977487;28;45366;-68
2021/12/14 02:43:00;;;;;;;;;14.67;12.00;;;;;9.06;69.29;102404.47;4978450;28;45825;-67
2021/12/14 02:45:25;;;;;;;;;12.67;8.00;;;;;9.03;69.32;102372.84;4978290;28;45452;-67
2021/12/14 02:47:52;;;;;;;;;10.50;10.50;;;;;9.24;68.83;102392.75;4978542;28;45405;-67
2021/12/14 02:50:18;;;;;;;;;12.00;9.67;;;;;9.20;68.61;102401.81;4993566;28;45559;-65
2021/12/14 02:52:44;;;;;;;;;11.33;10.33;;;;;9.23;68.63;102404.31;4997885;28;46894;-67
2021/12/14 02:55:22;;;;;;;;;11.33;9.00;;;;;9.35;68.54;102408.84;4997983;28;45435;-67
2021/12/14 02:57:52;;;;;;;;;14.33;14.33;;;;;9.41;68.25;102411.13;4998421;28;45281;-67
2021/12/14 03:00:31;;;;;;;;;15.33;10.67;;;;;9.07;68.15;102361.94;4996979;28;45382;-67
2021/12/14 03:02:58;;;;;;;;;15.33;14.00;;;;;9.36;68.25;102407.03;4997660;28;48451;-66
2021/12/14 03:05:28;;;;;;;;;16.33;12.67;;;;;9.33;68.17;102378.88;4997877;28;45407;-67
2021/12/14 03:08:16;;;;;;;;;15.00;13.67;;;;;9.50;68.86;102400.88;4997874;28;45406;-67
2021/12/14 03:13:18;;;;;;;;;10.00;8.00;;;;;9.57;68.22;102388.91;4997797;28;46145;-67
2021/12/14 03:15:52;;;;;;;;;19.00;15.00;;;;;9.57;67.87;102388.91;4997875;28;45459;-67
2021/12/14 03:18:31;;;;;;;;;12.67;10.00;;;;;9.54;68.20;102383.78;4997805;28;46634;-67
2021/12/14 03:21:02;;;;;;;;;13.67;13.33;;;;;9.53;68.05;102363.50;4997984;28;45499;-68
2021/12/14 03:23:34;;;;;;;;;16.00;14.67;;;;;9.53;68.29;102379.44;4996486;28;46751;-66
2021/12/14 03:26:03;;;;;;;;;18.00;16.33;;;;;9.43;68.23;102356.13;4996120;28;45557;-67
2021/12/14 03:28:30;;;;;;;;;15.33;15.33;;;;;9.59;67.92;102384.34;4997556;28;45222;-67
2021/12/14 03:31:04;;;;;;;;;15.00;14.00;;;;;9.65;68.40;102383.97;4997677;28;45502;-68
2021/12/14 03:33:35;;;;;;;;;19.67;16.67;;;;;9.34;68.01;102322.19;4997298;28;46305;-67
2021/12/14 03:36:17;;;;;;;;;16.67;16.67;;;;;9.69;68.13;102386.31;4997306;28;45364;-66
2021/12/14 03:38:42;;;;;;;;;17.67;16.33;;;;;9.65;67.81;102360.91;4991279;28;45428;-67
2021/12/14 03:41:16;;;;;;;;;13.67;13.67;;;;;9.62;67.46;102365.59;4976807;28;45644;-67
2021/12/14 03:43:50;;;;;;;;;18.00;16.67;;;;;9.61;67.46;102347.91;4977453;28;45702;-67
2021/12/14 03:46:16;;;;;;;;;12.33;11.33;;;;;9.60;67.46;102347.06;4977507;28;45615;-67
2021/12/14 03:48:41;;;;;;;;;15.67;12.67;;;;;9.64;67.72;102353.06;4977761;28;45428;-66
2021/12/14 03:51:07;;;;;;;;;12.00;12.00;;;;;9.60;67.14;102346.22;4993138;28;45507;-67
2021/12/14 03:53:33;;;;;;;;;13.00;12.33;;;;;9.27;67.51;102312.94;4977399;28;46596;-67
2021/12/14 03:56:03;;;;;;;;;15.00;13.00;;;;;9.30;67.38;102333.09;4992382;28;46753;-66
2021/12/14 03:58:35;;;;;;;;;19.67;18.00;;;;;9.45;67.64;102362.19;4977580;28;45215;-66
2021/12/14 04:01:10;;;;;;;;;19.33;15.67;;;;;9.02;67.73;102294.19;4977619;28;45467;-67
2021/12/14 04:03:36;;;;;;;;;18.00;15.00;;;;;9.50;68.22;102364.56;4977319;28;46585;-68
2021/12/14 04:06:04;;;;;;;;;15.33;14.67;;;;;9.51;67.85;102360.09;4977185;28;45352;-67
2021/12/14 04:08:31;;;;;;;;;20.33;17.67;;;;;9.34;68.31;102330.16;4977609;28;45360;-68
2021/12/14 04:10:59;;;;;;;;;17.67;17.67;;;;;9.46;68.28;102344.47;4977455;28;45499;-67
2021/12/14 04:13:30;;;;;;;;;24.00;19.33;;;;;9.50;68.23;102345.13;4977162;28;45815;-67
2021/12/14 04:15:56;;;;;;;;;14.00;14.00;;;;;9.41;67.98;102326.19;4977196;28;45499;-67
2021/12/14 04:18:22;;;;;;;;;14.00;13.33;;;;;9.57;67.61;102341.09;4977390;28;45335;-67
2021/12/14 04:20:48;;;;;;;;;15.00;14.33;;;;;9.43;67.64;102318.97;4992481;28;45423;-67
2021/12/14 04:23:22;;;;;;;;;12.33;12.33;;;;;9.38;68.05;102331.66;4977172;28;47537;-67
2021/12/14 04:25:49;;;;;;;;;19.33;16.67;;;;;9.57;67.91;102352.56;4977129;28;45252;-67
2021/12/14 04:28:20;;;;;;;;;22.00;17.00;;;;;9.54;67.74;102346.63;4977047;28;45492;-68
2021/12/14 04:30:47;;;;;;;;;17.33;12.67;;;;;9.52;68.00;102357.34;4975922;28;45442;-68
2021/12/14 04:33:18;;;;;;;;;17.00;14.67;;;;;9.59;67.84;102363.09;4976747;28;46446;-67
2021/12/14 04:35:45;;;;;;;;;20.00;20.00;;;;;9.23;67.50;102300.81;4980177;28;45436;-67
2021/12/14 04:38:23;;;;;;;;;17.00;15.33;;;;;9.69;67.55;102377.50;4980508;28;45480;-66
2021/12/14 04:52:01;;;;;;;;;19.00;18.00;;;;;9.58;67.57;102370.22;4980423;28;45317;-68
2021/12/14 04:54:49;;;;;;;;;20.00;19.33;;;;;9.60;67.90;102375.41;4979136;28;48012;-67
2021/12/14 04:57:25;;;;;;;;;19.67;18.33;;;;;9.55;68.41;102364.25;4975945;28;45252;-66
2021/12/14 04:59:54;;;;;;;;;23.00;20.67;;;;;9.58;68.05;102374.66;4980045;28;45268;-68
2021/12/14 05:02:27;;;;;;;;;23.33;22.33;;;;;9.54;68.08;102374.03;4995375;28;45482;-67
2021/12/14 05:04:55;;;;;;;;;19.33;18.00;;;;;9.54;68.36;102371.38;4979740;28;45521;-66
2021/12/14 05:09:51;;;;;;;;;25.00;22.00;;;;;9.62;68.43;102377.06;4996468;28;45360;-69
2021/12/14 05:12:21;;;;;;;;;21.00;20.33;;;;;9.68;67.87;102370.50;4998066;28;45503;-66
2021/12/14 05:14:47;;;;;;;;;18.67;17.33;;;;;9.73;67.46;102377.22;4999346;28;45799;-67
2021/12/14 05:17:19;;;;;;;;;26.00;21.00;;;;;9.66;67.61;102372.41;4999261;28;45265;-66
2021/12/14 05:19:46;;;;;;;;;22.67;22.00;;;;;9.61;68.02;102375.34;4999693;28;45320;-67
2021/12/14 05:22:16;;;;;;;;;27.00;23.00;;;;;9.68;67.96;102381.97;4999911;28;45353;-66
2021/12/14 05:24:47;;;;;;;;;23.67;20.00;;;;;9.60;68.30;102372.78;4998177;28;47675;-66
2021/12/14 05:27:23;;;;;;;;;20.00;19.33;;;;;9.28;68.27;102317.28;4999196;28;45578;-66
2021/12/14 05:29:48;;;;;;;;;23.33;20.33;;;;;9.59;67.62;102361.28;4999347;28;45400;-67
2021/12/14 05:32:17;;;;;;;;;25.33;23.67;;;;;9.64;68.10;102369.84;4999490;28;45461;-67
2021/12/14 05:34:46;;;;;;;;;22.67;18.00;;;;;9.47;67.81;102348.81;4998957;28;46400;-66
2021/12/14 05:37:16;;;;;;;;;25.33;22.33;;;;;9.69;67.90;102382.81;4999226;28;45312;-65
2021/12/14 05:44:40;;;;;;;;;20.00;17.67;;;;;9.58;67.86;102369.34;4979232;28;45711;-68
2021/12/14 05:47:10;;;;;;;;;24.67;22.67;;;;;9.50;67.89;102353.06;4978502;28;45399;-69
2021/12/14 05:49:39;;;;;;;;;27.67;25.00;;;;;9.66;67.92;102383.88;4979120;28;45500;-67
2021/12/14 05:52:12;;;;;;;;;24.00;21.00;;;;;9.63;67.89;102360.16;4994167;28;45514;-67
2021/12/14 05:54:38;;;;;;;;;26.33;22.67;;;;;9.61;67.88;102388.63;4979353;28;46064;-66
2021/12/14 05:57:06;;;;;;;;;25.33;21.67;;;;;9.63;67.99;102381.41;4979049;28;45517;-67
2021/12/14 05:59:33;;;;;;;;;25.00;22.33;;;;;9.72;67.93;102377.31;4994006;28;45523;-67
2021/12/14 06:02:02;;;;;;;;;26.00;25.00;;;;;9.35;67.90;102326.53;4979286;28;45527;-67
2021/12/14 06:04:33;;;;;;;;;25.33;22.67;;;;;9.66;68.19;102383.88;4978951;28;46654;-66
2021/12/14 06:06:59;;;;;;;;;26.67;23.67;;;;;9.58;68.41;102387.94;4977358;28;45553;-68
2021/12/14 06:09:30;;;;;;;;;31.33;28.00;;;;;9.60;68.46;102383.38;4994174;28;45498;-67
2021/12/14 06:12:10;;;;;;;;;30.33;26.00;;;;;9.54;68.55;102397.06;4978984;28;45496;-67
2021/12/14 06:14:42;;;;;;;;;27.00;21.00;;;;;9.53;68.78;102395.34;4978637;28;46360;-67
2021/12/14 06:17:09;;;;;;;;;22.00;19.33;;;;;9.52;68.91;102422.84;4978604;28;45557;-67
2021/12/14 06:19:41;;;;;;;;;30.67;26.00;;;;;9.47;69.11;102424.97;4977566;28;45413;-67
2021/12/14 06:22:12;;;;;;;;;36.33;28.00;;;;;9.45;69.07;102428.56;4979046;28;45482;-66
2021/12/14 06:24:43;;;;;;;;;29.67;26.00;;;;;9.37;69.06;102412.25;4995974;28;45779;-68
2021/12/14 06:27:16;;;;;;;;;22.00;17.33;;;;;9.38;68.65;102432.53;4998071;28;45349;-66
2021/12/14 06:29:55;;;;;;;;;27.67;21.33;;;;;9.29;69.15;102427.81;4997053;28;45585;-67
2021/12/14 06:32:44;;;;;;;;;25.33;19.67;;;;;9.21;68.98;102400.00;4998274;28;45331;-66
2021/12/14 06:35:16;;;;;;;;;22.33;20.00;;;;;9.50;68.59;102446.00;4997746;28;45325;-68
2021/12/14 06:40:54;;;;;;;;;20.00;19.00;;;;;9.53;68.45;102440.50;4997993;28;45211;-66
2021/12/14 06:43:36;;;;;;;;;19.33;17.33;;;;;9.21;68.67;102392.03;4998269;28;45404;-67
2021/12/14 06:46:15;;;;;;;;;18.67;18.33;;;;;9.58;67.83;102452.53;4997577;28;45968;-66
2021/12/14 06:48:48;;;;;;;;;18.67;15.00;;;;;9.58;67.75;102464.94;4997729;28;45241;-66
2021/12/14 06:51:23;;;;;;;;;26.00;20.67;;;;;9.42;67.96;102465.06;4997657;28;45297;-68
2021/12/14 06:53:54;;;;;;;;;19.00;17.33;;;;;8.90;68.22;102383.34;4987565;28;45475;-70
2021/12/14 06:56:27;;;;;;;;;16.00;16.00;;;;;9.31;67.87;102456.91;4990839;28;45575;-67
2021/12/14 06:58:59;;;;;;;;;16.33;14.33;;;;;9.33;68.10;102455.84;4988659;28;45400;-68
2021/12/14 07:01:37;;;;;;;;;20.67;19.67;;;;;9.28;68.03;102442.03;4992769;28;45578;-69
2021/12/14 07:04:22;;;;;;;;;21.33;18.33;;;;;9.40;67.80;102451.88;4993643;28;45552;-67
2021/12/14 07:07:00;;;;;;;;;16.00;13.33;;;;;9.35;67.68;102448.66;4981738;28;49928;-68
2021/12/14 07:09:26;;;;;;;;;15.33;12.00;;;;;9.49;67.82;102468.19;4991649;28;45549;-66
2021/12/14 07:12:01;;;;;;;;;18.67;16.67;;;;;9.45;67.90;102457.75;4993742;28;45471;-69
2021/12/14 07:14:26;;;;;;;;;21.00;18.00;;;;;9.53;68.05;102467.03;4983864;28;45346;-69
2021/12/14 07:16:54;;;;;;;;;19.33;18.33;;;;;9.54;67.47;102469.59;4977546;28;47508;-68
2021/12/14 07:19:39;;;;;;;;;20.00;20.00;;;;;9.53;67.70;102448.47;4984887;28;45498;-70
2021/12/14 07:22:06;;;;;;;;;22.00;18.33;;;;;9.64;67.25;102456.63;4979704;28;45299;-67
2021/12/14 07:24:35;;;;;;;;;23.67;18.33;;;;;9.53;68.02;102432.53;4981757;28;45575;-67
2021/12/14 07:27:23;;;;;;;;;19.33;17.00;;;;;9.72;67.20;102455.19;4999072;28;46307;-66
2021/12/14 07:29:50;;;;;;;;;29.67;26.33;;;;;9.76;66.87;102453.19;5008877;28;45936;-67
2021/12/14 07:32:37;;;;;;;;;20.00;18.33;;;;;9.66;67.21;102455.56;4995161;28;45296;-67
2021/12/14 07:35:20;;;;;;;;;18.33;15.67;;;;;9.73;67.06;102464.84;4997014;28;45461;-68
2021/12/14 07:37:46;;;;;;;;;24.67;24.67;;;;;9.68;67.37;102461.63;4998921;28;46037;-66
2021/12/14 07:40:13;;;;;;;;;23.33;19.33;;;;;9.58;67.53;102433.09;5014924;28;45393;-66
2021/12/14 07:42:38;;;;;;;;;22.33;18.00;;;;;9.74;67.15;102465.69;4994097;28;45206;-69
2021/12/14 07:45:06;;;;;;;;;25.67;24.67;;;;;9.81;67.20;102469.69;4994296;28;45476;-67
2021/12/14 07:47:32;;;;;;;;;18.00;17.33;;;;;9.85;67.38;102478.31;4996544;28;46384;-66
2021/12/14 07:49:58;;;;;;;;;23.67;20.67;;;;;9.57;66.88;102420.75;4995234;28;45365;-66
2021/12/14 07:52:36;;;;;;;;;21.67;17.67;;;;;9.94;66.93;102486.53;4996216;28;45396;-67
2021/12/14 07:55:05;;;;;;;;;29.00;23.67;;;;;9.56;67.03;102416.41;4992623;28;45827;-69
2021/12/14 07:57:37;;;;;;;;;23.67;21.00;;;;;9.67;67.30;102435.19;4995535;28;45777;-66
2021/12/14 08:00:18;;;;;;;;;22.00;19.67;;;;;9.96;66.47;102476.69;4981652;28;45284;-66
2021/12/14 08:02:56;;;;;;;;;29.33;24.00;;;;;9.97;67.00;102489.00;4979695;28;45456;-67
2021/12/14 08:05:29;;;;;;;;;22.33;21.33;;;;;9.51;67.12;102415.84;4980126;28;45571;-67
2021/12/14 08:07:57;;;;;;;;;30.00;23.67;;;;;9.98;66.97;102493.38;4992758;28;48750;-67
2021/12/14 08:10:30;;;;;;;;;23.00;21.00;;;;;9.98;66.94;102496.03;4979561;28;45519;-67
2021/12/14 08:13:09;;;;;;;;;17.33;17.33;;;;;9.92;66.84;102491.09;4973875;28;45493;-71
2021/12/14 08:15:42;;;;;;;;;22.67;21.67;;;;;10.04;67.43;102519.56;4981000;28;45537;-67
2021/12/14 08:18:18;;;;;;;;;18.33;18.33;;;;;9.90;66.73;102487.69;4986738;28;48885;-68
2021/12/14 08:20:52;;;;;;;;;21.00;18.00;;;;;10.10;67.03;102520.97;4995189;28;45449;-68
2021/12/14 08:23:31;;;;;;;;;25.33;23.33;;;;;10.03;66.51;102503.72;4975958;28;45744;-67
2021/12/14 08:26:09;;;;;;;;;25.67;23.00;;;;;9.23;66.90;102372.47;4985035;28;45396;-69
2021/12/14 08:28:52;;;;;;;;;20.33;18.67;;;;;10.18;66.94;102528.44;4994954;28;46866;-66
2021/12/14 08:31:20;;;;;;;;;21.67;17.00;;;;;10.22;66.57;102533.53;4995676;28;45316;-69
2021/12/14 08:33:57;;;;;;;;;21.00;19.33;;;;;10.24;65.96;102526.31;4984158;28;45377;-67
2021/12/14 08:36:23;;;;;;;;;27.33;24.00;;;;;10.15;66.38;102510.03;4978845;28;45551;-68
2021/12/14 08:39:03;;;;;;;;;22.00;19.00;;;;;9.75;66.19;102431.06;4991799;28;48066;-68
2021/12/14 08:41:29;;;;;;;;;26.00;21.00;;;;;9.91;66.06;102467.28;4987303;28;46096;-68
2021/12/14 08:43:55;;;;;;;;;25.00;22.00;;;;;10.26;66.59;102526.22;4976143;28;45515;-67
2021/12/14 08:46:26;;;;;;;;;25.00;23.00;;;;;10.21;66.56;102520.31;4976598;28;45503;-67
2021/12/14 08:48:58;;;;;;;;;23.00;20.67;;;;;10.19;66.44;102519.53;4975568;28;45850;-67
2021/12/14 08:51:36;;;;;;;;;26.67;21.00;;;;;10.13;66.55;102517.28;4976760;28;45431;-67
2021/12/14 08:54:14;;;;;;;;;27.00;22.00;;;;;10.34;66.00;102537.19;4976377;28;45459;-67
2021/12/14 08:57:08;;;;;;;;;24.33;22.33;;;;;10.28;66.55;102529.63;4984232;28;45448;-68
2021/12/14 08:59:37;;;;;;;;;21.00;20.00;;;;;9.91;65.87;102460.19;4995788;28;46409;-67
2021/12/14 09:02:07;;;;;;;;;23.67;20.00;;;;;10.40;65.72;102544.75;4994031;28;45451;-68
2021/12/14 09:04:42;;;;;;;;;27.00;25.00;;;;;10.40;65.88;102544.75;4977974;28;45671;-68
2021/12/14 09:07:12;;;;;;;;;23.67;21.00;;;;;10.24;65.51;102504.19;4975997;28;45397;-67
2021/12/14 09:09:40;;;;;;;;;24.33;21.00;;;;;10.40;65.90;102534.13;4975683;28;45357;-68
2021/12/14 09:12:24;;;;;;;;;23.00;20.33;;;;;10.37;65.84;102534.31;4969392;28;46639;-67
2021/12/14 09:14:52;;;;;;;;;21.67;20.67;;;;;10.26;65.72;102512.91;5009604;28;45370;-68
2021/12/14 09:17:22;;;;;;;;;26.33;23.33;;;;;10.41;65.96;102530.53;4990648;28;45585;-68
2021/12/14 09:20:01;;;;;;;;;25.33;22.67;;;;;10.43;65.92;102531.28;4995512;28;45764;-66
2021/12/14 09:22:41;;;;;;;;;25.67;22.00;;;;;10.38;65.71;102522.75;4992347;28;45951;-67
2021/12/14 09:25:11;;;;;;;;;24.00;21.67;;;;;10.37;65.57;102523.69;4997089;28;45518;-67
2021/12/14 09:27:38;;;;;;;;;32.00;24.67;;;;;10.40;66.02;102535.94;4988032;28;45361;-67
2021/12/14 09:30:06;;;;;;;;;24.67;23.33;;;;;10.29;65.49;102526.00;4989072;28;46024;-68
2021/12/14 09:32:34;;;;;;;;;28.00;25.33;;;;;10.30;65.52;102527.72;4993121;28;45407;-72
2021/12/14 09:35:01;;;;;;;;;23.00;20.67;;;;;10.33;65.56;102528.38;4990036;28;45416;-67
2021/12/14 09:37:28;;;;;;;;;24.00;21.67;;;;;10.45;65.16;102542.69;4993086;28;45419;-67
2021/12/14 09:39:58;;;;;;;;;28.33;26.33;;;;;10.40;65.52;102544.75;4978536;28;46683;-67
2021/12/14 09:42:30;;;;;;;;;26.33;22.00;;;;;10.35;65.63;102542.41;4976971;28;45572;-67
2021/12/14 09:45:00;;;;;;;;;25.67;22.33;;;;;10.34;66.21;102546.03;4978444;28;45381;-66
2021/12/14 09:47:29;;;;;;;;;33.33;26.00;;;;;10.41;65.91;102549.16;4978679;28;45532;-68
2021/12/14 09:49:57;;;;;;;;;26.67;23.67;;;;;10.43;65.58;102552.56;4982225;28;45703;-71
2021/12/14 09:52:31;;;;;;;;;27.33;25.00;;;;;10.45;65.90;102558.63;4997885;28;45459;-68
2021/12/14 09:54:58;;;;;;;;;33.33;27.00;;;;;10.38;65.48;102529.88;4998110;28;45288;-66
2021/12/14 09:57:33;;;;;;;;;32.67;30.33;;;;;10.46;65.48;102556.84;4981730;28;45306;-67
2021/12/14 10:00:05;;;;;;;;;30.67;26.00;;;;;10.50;65.30;102553.88;4978553;28;45634;-69
2021/12/14 10:02:37;;;;;;;;;25.00;23.67;;;;;10.59;65.50;102571.03;4987759;28;45471;-69
2021/12/14 10:05:18;;;;;;;;;29.00;24.67;;;;;10.57;65.46;102570.28;4978647;28;45528;-67
2021/12/14 10:07:44;;;;;;;;;26.00;25.00;;;;;10.60;64.88;102562.09;4988382;28;45463;-68
2021/12/14 10:10:13;;;;;;;;;30.33;27.67;;;;;10.53;65.23;102553.66;4996550;28;47903;-68
2021/12/14 10:15:19;;;;;;;;;26.33;25.00;;;;;10.32;65.40;102504.53;4998184;28;45323;-69
2021/12/14 10:17:46;;;;;;;;;29.67;24.00;;;;;10.60;64.73;102551.44;4998083;28;45386;-67
2021/12/14 10:20:19;;;;;;;;;33.33;29.33;;;;;10.74;64.84;102569.19;4993840;28;45607;-68
2021/12/14 10:22:46;;;;;;;;;28.33;24.67;;;;;10.69;64.96;102545.53;4992765;28;45515;-68
2021/12/14 10:25:20;;;;;;;;;36.67;31.33;;;;;10.70;65.08;102554.38;5005892;28;45456;-68
2021/12/14 10:27:47;;;;;;;;;30.00;27.33;;;;;10.65;65.11;102552.88;4997857;28;45654;-67
2021/12/14 10:30:30;;;;;;;;;34.33;30.00;;;;;10.72;64.60;102560.44;4993555;28;45750;-67
2021/12/14 10:32:57;;;;;;;;;29.33;25.33;;;;;10.63;65.07;102541.50;4976311;28;46183;-67
2021/12/14 10:35:30;;;;;;;;;34.00;29.00;;;;;10.75;64.88;102560.25;4987937;28;45647;-69
2021/12/14 10:38:07;;;;;;;;;30.67;27.33;;;;;10.69;64.41;102550.00;4998062;28;45817;-68
2021/12/14 10:43:23;;;;;;;;;33.67;29.33;;;;;10.82;64.85;102572.22;4997253;28;45572;-68
2021/12/14 10:45:53;;;;;;;;;33.67;30.67;;;;;10.84;64.66;102567.63;4992201;28;45319;-69
2021/12/14 10:48:20;;;;;;;;;32.33;27.33;;;;;10.88;64.59;102569.13;4994293;28;45532;-68
2021/12/14 10:50:50;;;;;;;;;32.00;30.67;;;;;10.76;64.75;102543.31;4996069;28;46902;-69
2021/12/14 10:53:19;;;;;;;;;38.33;29.33;;;;;10.85;64.33;102567.53;5000791;28;45365;-68
2021/12/14 10:55:59;;;;;;;;;40.67;32.67;;;;;10.79;64.33;102551.94;4977838;28;45416;-68
2021/12/14 10:58:27;;;;;;;;;35.00;29.33;;;;;10.94;64.60;102577.56;4992963;28;45667;-67
2021/12/14 11:00:59;;;;;;;;;36.67;31.33;;;;;10.98;64.25;102567.56;4977769;28;46398;-67
2021/12/14 11:03:31;;;;;;;;;32.33;28.67;;;;;10.58;64.44;102501.03;4986699;28;45485;-68
2021/12/14 11:06:00;;;;;;;;;35.67;28.67;;;;;10.71;64.08;102518.84;4992651;28;45603;-68
2021/12/14 11:08:46;;;;;;;;;34.00;31.33;;;;;10.75;64.19;102504.38;4997318;28;45398;-69
2021/12/14 11:11:31;;;;;;;;;32.67;30.00;;;;;11.12;63.60;102567.50;4995461;28;47635;-67
2021/12/14 11:14:01;;;;;;;;;34.67;32.00;;;;;11.11;63.97;102555.13;4997212;28;45359;-67
2021/12/14 11:18:08;;;;;;;;;39.00;33.33;;;;;11.23;63.62;102561.47;4996961;28;45482;-67
2021/12/14 11:19:18;;;;;;;;;34.33;32.00;;;;;11.24;63.48;102556.03;4997214;28;45455;-68
2021/12/14 11:21:44;;;;;;;;;33.67;31.00;;;;;11.22;63.66;102552.63;4996865;28;45460;-66
2021/12/14 11:24:10;;;;;;;;;33.33;29.33;;;;;11.19;63.20;102547.47;4989737;28;45448;-69
2021/12/14 11:26:36;;;;;;;;;34.33;31.67;;;;;11.27;63.25;102553.16;4977263;28;45289;-70
2021/12/14 11:29:09;;;;;;;;;30.67;27.00;;;;;11.22;63.77;102544.63;4986170;28;45604;-68
2021/12/14 11:31:43;;;;;;;;;37.00;31.33;;;;;11.26;63.51;102538.13;4996692;28;46510;-67
2021/12/14 11:34:13;;;;;;;;;35.67;30.00;;;;;11.30;63.16;102537.91;4994383;28;45539;-69
2021/12/14 11:36:43;;;;;;;;;35.33;30.00;;;;;10.94;62.94;102464.94;4985592;28;45504;-67
2021/12/14 11:39:27;;;;;;;;;41.00;33.00;;;;;11.45;62.78;102553.72;4988962;28;45485;-67
2021/12/14 11:41:59;;;;;;;;;37.00;31.00;;;;;11.50;63.17;102540.06;5005932;28;46580;-67
2021/12/14 11:45:06;;;;;;;;;35.67;31.00;;;;;11.51;63.09;102544.44;4995313;28;45520;-69
2021/12/14 11:50:21;;;;;;;;;37.33;33.00;;;;;11.51;62.65;102539.09;4997004;28;45355;-69
2021/12/14 11:52:52;;;;;;;;;31.33;28.67;;;;;11.50;62.87;102535.59;4988087;28;47465;-67
2021/12/14 11:55:24;;;;;;;;;47.33;36.67;;;;;11.54;62.72;102531.75;4990511;28;45631;-65
2021/12/14 11:58:20;;;;;;;;;35.67;31.67;;;;;11.51;62.92;102517.81;4983877;28;45413;-66
2021/12/14 12:01:00;;;;;;;;;33.33;29.67;;;;;11.53;62.50;102521.19;4982798;28;45728;-68
2021/12/14 12:03:34;;;;;;;;;45.33;35.33;;;;;11.59;62.71;102520.75;4988159;28;46687;-69
2021/12/14 12:06:13;;;;;;;;;41.00;33.33;;;;;11.63;62.53;102526.75;4975697;28;45494;-67
2021/12/14 12:11:38;;;;;;;;;39.67;34.67;;;;;11.64;62.86;102521.31;4977221;28;45595;-67
2021/12/14 12:14:29;;;;;;;;;35.33;31.00;;;;;11.58;62.90;102511.91;4991314;28;46446;-66
2021/12/14 12:17:16;;;;;;;;;36.33;31.00;;;;;11.19;62.33;102433.00;4976095;28;45183;-67
2021/12/14 12:20:19;;;;;;;;;29.67;27.67;;;;;11.70;62.26;102514.69;4955114;28;45583;-68
2021/12/14 12:22:47;;;;;;;;;31.00;27.67;;;;;11.76;62.38;102512.44;4998114;28;45396;-67
2021/12/14 12:25:30;;;;;;;;;37.00;33.00;;;;;11.71;62.49;102509.25;4992135;28;45790;-68